createdAt,value
2024-04-10T00:01:45.169Z,46.41
2024-04-10T00:04:12.263Z,46.37
2024-04-10T00:06:39.461Z,46.41
2024-04-10T00:09:06.226Z,46.59
2024-04-10T00:11:33.119Z,46.77
2024-04-10T00:14:00.629Z,46.60
2024-04-10T00:16:27.584Z,47.10
2024-04-10T00:18:55.033Z,47.23
2024-04-10T00:21:23.622Z,47.13
2024-04-10T00:23:52.822Z,47.39
2024-04-10T00:26:20.530Z,47.70
2024-04-10T00:28:47.567Z,47.48
2024-04-10T00:31:15.231Z,47.51
2024-04-10T00:33:42.375Z,47.54
2024-04-10T00:36:09.900Z,47.41
2024-04-10T00:38:37.447Z,47.85
2024-04-10T00:41:05.703Z,47.85
2024-04-10T00:43:33.884Z,47.70
2024-04-10T00:46:20.500Z,48.33
2024-04-10T00:48:47.998Z,48.23
2024-04-10T00:51:20.068Z,48.22
2024-04-10T00:53:47.560Z,48.11
2024-04-10T00:56:14.983Z,48.23
2024-04-10T00:58:42.240Z,48.27
2024-04-10T01:01:13.023Z,48.22
2024-04-10T01:03:40.415Z,48.19
2024-04-10T01:06:08.643Z,48.24
2024-04-10T01:08:37.538Z,48.34
2024-04-10T01:11:06.686Z,48.23
2024-04-10T01:13:34.174Z,48.34
2024-04-10T01:16:01.750Z,48.29
2024-04-10T01:18:29.035Z,48.33
2024-04-10T01:20:55.917Z,48.34
2024-04-10T01:23:23.907Z,48.28
2024-04-10T01:25:50.862Z,48.43
2024-04-10T01:28:17.573Z,48.33
2024-04-10T01:30:44.861Z,48.53
2024-04-10T01:33:12.356Z,48.61
2024-04-10T01:35:39.281Z,48.86
2024-04-10T01:38:06.447Z,48.94
2024-04-10T01:40:33.446Z,49.09
2024-04-10T01:43:00.302Z,49.09
2024-04-10T01:45:27.434Z,49.33
2024-04-10T01:47:54.452Z,49.74
2024-04-10T01:50:22.056Z,49.71
2024-04-10T01:52:49.118Z,49.88
2024-04-10T01:55:16.258Z,50.12
2024-04-10T01:57:45.475Z,50.43
2024-04-10T02:00:13.019Z,50.59
2024-04-10T02:02:40.573Z,50.69
2024-04-10T02:05:07.461Z,50.97
2024-04-10T02:07:34.314Z,51.07
2024-04-10T02:10:01.404Z,51.28
2024-04-10T02:12:28.389Z,51.29
2024-04-10T02:14:55.554Z,51.83
2024-04-10T02:17:22.526Z,52.32
2024-04-10T02:19:52.361Z,52.62
2024-04-10T02:22:20.093Z,52.79
2024-04-10T02:24:47.010Z,53.15
2024-04-10T02:27:14.240Z,53.58
2024-04-10T02:29:41.602Z,54.03
2024-04-10T02:32:08.575Z,54.49
2024-04-10T02:34:37.741Z,54.91
2024-04-10T02:37:04.645Z,54.96
2024-04-10T02:39:31.631Z,55.69
2024-04-10T02:41:59.399Z,56.11
2024-04-10T02:44:26.238Z,56.32
2024-04-10T02:46:54.537Z,56.66
2024-04-10T02:49:21.608Z,56.96
2024-04-10T02:51:48.418Z,57.07
2024-04-10T02:54:15.465Z,57.44
2024-04-10T02:56:42.384Z,57.49
2024-04-10T02:59:09.353Z,57.44
2024-04-10T03:01:36.928Z,57.40
2024-04-10T03:04:04.339Z,57.26
2024-04-10T03:06:31.330Z,57.61
2024-04-10T03:08:58.606Z,57.83
2024-04-10T03:11:25.713Z,57.86
2024-04-10T03:13:52.911Z,57.91
2024-04-10T03:16:20.041Z,58.13
2024-04-10T03:18:47.308Z,58.24
2024-04-10T03:21:14.450Z,58.28
2024-04-10T03:23:41.711Z,58.51
2024-04-10T03:26:11.228Z,58.68
2024-04-10T03:28:41.068Z,58.82
2024-04-10T03:31:08.227Z,59.12
2024-04-10T03:33:35.726Z,59.12
2024-04-10T03:36:04.934Z,59.35
2024-04-10T03:38:32.626Z,59.53
2024-04-10T03:40:59.566Z,59.92
2024-04-10T03:43:26.600Z,59.98
2024-04-10T03:45:54.052Z,60.15
2024-04-10T03:48:21.128Z,60.12
2024-04-10T03:50:48.946Z,60.15
2024-04-10T03:53:16.170Z,60.42
2024-04-10T03:55:43.376Z,60.10
2024-04-10T03:58:10.826Z,60.32
2024-04-10T04:00:37.627Z,60.32
2024-04-10T04:03:05.848Z,60.33
2024-04-10T04:05:33.091Z,60.20
2024-04-10T04:07:59.972Z,60.22
2024-04-10T04:10:27.311Z,60.27
2024-04-10T04:12:54.155Z,60.70
2024-04-10T04:15:20.894Z,60.71
2024-04-10T04:17:47.987Z,60.64
2024-04-10T04:20:15.118Z,60.63
2024-04-10T04:22:42.509Z,60.62
2024-04-10T04:25:09.495Z,60.77
2024-04-10T04:27:36.137Z,60.86
2024-04-10T04:30:04.383Z,60.94
2024-04-10T04:32:32.919Z,60.69
2024-04-10T04:35:02.478Z,60.75
2024-04-10T04:37:30.070Z,60.72
2024-04-10T04:39:56.921Z,60.84
2024-04-10T04:42:25.414Z,60.88
2024-04-10T04:44:54.145Z,60.75
2024-04-10T04:47:20.969Z,60.56
2024-04-10T04:49:48.523Z,60.57
2024-04-10T04:52:15.244Z,60.81
2024-04-10T04:54:42.187Z,60.63
2024-04-10T04:57:13.026Z,60.33
2024-04-10T04:59:40.050Z,60.10
2024-04-10T05:02:07.323Z,59.79
2024-04-10T05:04:53.660Z,59.65
2024-04-10T05:07:21.113Z,59.47
2024-04-10T05:09:50.285Z,59.03
2024-04-10T05:12:17.839Z,58.83
2024-04-10T05:14:54.622Z,58.96
2024-04-10T05:17:22.219Z,58.70
2024-04-10T05:19:49.160Z,58.70
2024-04-10T05:22:16.082Z,58.50
2024-04-10T05:24:43.636Z,58.12
2024-04-10T05:27:21.551Z,58.42
2024-04-10T05:30:04.469Z,58.06
2024-04-10T05:32:31.717Z,57.82
2024-04-10T05:34:59.005Z,57.27
2024-04-10T05:37:26.740Z,57.06
2024-04-10T05:40:06.810Z,56.90
2024-04-10T05:42:37.528Z,55.53
2024-04-10T05:45:05.744Z,55.40
2024-04-10T05:47:36.263Z,54.61
2024-04-10T05:50:03.849Z,54.64
2024-04-10T05:52:31.478Z,54.14
2024-04-10T05:54:58.411Z,54.02
2024-04-10T05:57:27.919Z,53.76
2024-04-10T05:59:55.070Z,53.36
2024-04-10T06:02:22.900Z,53.12
2024-04-10T06:04:56.737Z,52.86
2024-04-10T06:07:24.225Z,52.60
2024-04-10T06:09:58.481Z,51.74
2024-04-10T06:12:25.914Z,51.73
2024-04-10T06:14:53.578Z,51.45
2024-04-10T06:17:27.479Z,50.80
2024-04-10T06:19:58.556Z,51.02
2024-04-10T06:22:25.672Z,50.32
2024-04-10T06:24:53.559Z,50.28
2024-04-10T06:27:20.900Z,50.13
2024-04-10T06:29:48.971Z,49.74
2024-04-10T06:32:16.654Z,49.58
2024-04-10T06:34:43.983Z,49.62
2024-04-10T06:37:11.435Z,49.63
2024-04-10T06:39:38.487Z,49.57
2024-04-10T06:42:05.775Z,49.33
2024-04-10T06:44:33.292Z,49.25
2024-04-10T06:47:00.668Z,48.84
2024-04-10T06:49:29.613Z,48.56
2024-04-10T06:51:56.917Z,48.54
2024-04-10T06:54:23.846Z,48.61
2024-04-10T06:56:51.317Z,48.28
2024-04-10T06:59:19.152Z,48.50
2024-04-10T07:01:46.429Z,47.64
2024-04-10T07:04:13.508Z,48.06
2024-04-10T07:06:40.526Z,48.26
2024-04-10T07:09:09.911Z,48.29
2024-04-10T07:11:37.584Z,47.77
2024-04-10T07:14:04.564Z,47.57
2024-04-10T07:16:33.139Z,47.23
2024-04-10T07:19:00.790Z,47.26
2024-04-10T07:21:28.663Z,46.73
2024-04-10T07:24:00.021Z,46.32
2024-04-10T07:26:28.837Z,45.29
2024-04-10T07:28:57.425Z,45.45
2024-04-10T07:31:35.420Z,45.84
2024-04-10T07:34:03.986Z,45.53
2024-04-10T07:36:33.719Z,44.98
2024-04-10T07:39:03.554Z,44.62
2024-04-10T07:41:30.632Z,44.30
2024-04-10T07:43:58.159Z,44.36
2024-04-10T07:46:25.778Z,43.83
2024-04-10T07:48:56.961Z,43.85
2024-04-10T07:51:25.341Z,43.34
2024-04-10T07:53:52.617Z,42.96
2024-04-10T07:56:21.451Z,42.81
2024-04-10T07:58:49.567Z,42.58
2024-04-10T08:01:18.168Z,42.84
2024-04-10T08:03:49.031Z,42.46
2024-04-10T08:06:16.604Z,42.03
2024-04-10T08:08:43.940Z,41.66
2024-04-10T08:11:20.238Z,41.44
2024-04-10T08:13:47.482Z,41.54
2024-04-10T08:16:16.211Z,41.19
2024-04-10T08:18:43.854Z,41.46
2024-04-10T08:21:15.600Z,40.49
2024-04-10T08:23:44.568Z,39.97
2024-04-10T08:26:19.339Z,39.49
2024-04-10T08:28:49.349Z,39.37
2024-04-10T08:31:21.913Z,39.35
2024-04-10T08:33:49.860Z,39.50
2024-04-10T08:36:17.498Z,39.68
2024-04-10T08:38:45.171Z,39.71
2024-04-10T08:41:19.618Z,38.91
2024-04-10T08:43:51.466Z,39.10
2024-04-10T08:46:19.573Z,39.08
2024-04-10T08:48:46.891Z,39.18
2024-04-10T08:51:15.303Z,38.73
2024-04-10T08:53:45.973Z,38.83
2024-04-10T08:56:14.969Z,38.99
2024-04-10T08:58:42.199Z,38.62
2024-04-10T09:01:09.300Z,39.08
2024-04-10T09:03:38.141Z,38.19
2024-04-10T09:06:09.101Z,37.58
2024-04-10T09:08:37.768Z,37.53
2024-04-10T09:11:05.439Z,36.69
2024-04-10T09:13:32.486Z,36.46
2024-04-10T09:16:00.436Z,36.28
2024-04-10T09:18:27.898Z,35.75
2024-04-10T09:21:11.624Z,35.50
2024-04-10T09:23:39.376Z,35.51
2024-04-10T09:26:06.794Z,35.38
2024-04-10T09:28:34.842Z,35.39
2024-04-10T09:31:01.968Z,35.11
2024-04-10T09:33:35.603Z,34.78
2024-04-10T09:36:04.139Z,34.43
2024-04-10T09:38:31.321Z,33.70
2024-04-10T09:41:04.862Z,33.62
2024-04-10T09:43:32.736Z,33.35
2024-04-10T09:46:03.662Z,32.91
2024-04-10T09:48:33.436Z,32.75
2024-04-10T09:51:07.372Z,32.83
2024-04-10T09:53:35.570Z,32.56
2024-04-10T09:56:04.636Z,32.16
2024-04-10T09:58:34.768Z,32.01
2024-04-10T10:01:02.824Z,32.12
2024-04-10T10:03:30.908Z,31.42
2024-04-10T10:06:05.559Z,31.02
2024-04-10T10:08:36.558Z,31.41
2024-04-10T10:11:07.579Z,30.99
2024-04-10T10:13:46.491Z,30.65
2024-04-10T10:16:24.068Z,30.24
2024-04-10T10:19:00.175Z,30.21
2024-04-10T10:21:29.094Z,30.69
2024-04-10T10:23:56.195Z,30.25
2024-04-10T10:26:23.573Z,30.20
2024-04-10T10:28:50.817Z,29.51
2024-04-10T10:31:21.902Z,29.68
2024-04-10T10:33:49.276Z,29.48
2024-04-10T10:36:16.860Z,29.20
2024-04-10T10:38:43.956Z,29.83
2024-04-10T10:41:17.658Z,29.85
2024-04-10T10:43:46.835Z,29.67
2024-04-10T10:46:13.824Z,30.01
2024-04-10T10:48:43.222Z,29.95
2024-04-10T10:51:10.415Z,29.77
2024-04-10T10:53:37.589Z,29.48
2024-04-10T10:56:05.793Z,28.72
2024-04-10T10:58:33.491Z,27.93
2024-04-10T11:01:01.007Z,27.60
2024-04-10T11:03:30.478Z,27.87
2024-04-10T11:06:09.423Z,28.27
2024-04-10T11:08:37.062Z,28.60
2024-04-10T11:11:04.899Z,28.84
2024-04-10T11:13:32.769Z,28.06
2024-04-10T11:16:00.738Z,28.10
2024-04-10T11:18:28.090Z,27.90
2024-04-10T11:20:56.208Z,27.84
2024-04-10T11:23:25.408Z,27.95
2024-04-10T11:25:53.598Z,27.89
2024-04-10T11:28:21.006Z,27.69
2024-04-10T11:30:48.062Z,27.91
2024-04-10T11:33:15.062Z,27.68
2024-04-10T11:35:42.860Z,27.35
2024-04-10T11:38:10.018Z,27.34
2024-04-10T11:40:39.935Z,27.93
2024-04-10T11:43:07.234Z,28.60
2024-04-10T11:45:35.420Z,28.74
2024-04-10T11:48:05.887Z,28.99
2024-04-10T11:50:34.012Z,28.91
2024-04-10T11:53:01.022Z,27.98
2024-04-10T11:55:29.318Z,27.41
2024-04-10T11:57:57.087Z,26.92
2024-04-10T12:00:24.119Z,27.51
2024-04-10T12:02:51.756Z,28.01
2024-04-10T12:05:19.207Z,27.75
2024-04-10T12:07:46.320Z,27.24
2024-04-10T12:10:14.068Z,27.22
2024-04-10T12:12:47.325Z,26.70
2024-04-10T12:15:14.865Z,26.97
2024-04-10T12:17:42.271Z,27.61
2024-04-10T12:20:10.939Z,27.85
2024-04-10T12:22:40.933Z,27.18
2024-04-10T12:25:08.637Z,26.62
2024-04-10T12:27:35.996Z,27.79
2024-04-10T12:30:04.286Z,27.96
2024-04-10T12:32:32.330Z,27.70
2024-04-10T12:35:19.799Z,27.62
2024-04-10T12:38:08.512Z,27.07
2024-04-10T12:40:37.551Z,26.91
2024-04-10T12:43:07.248Z,26.50
2024-04-10T12:45:34.211Z,26.74
2024-04-10T12:48:02.240Z,26.82
2024-04-10T12:50:29.843Z,26.39
2024-04-10T12:52:56.763Z,26.36
2024-04-10T12:55:24.332Z,25.69
2024-04-10T12:57:51.579Z,25.44
2024-04-10T13:00:19.452Z,25.57
2024-04-10T13:02:47.764Z,24.65
2024-04-10T13:05:15.312Z,24.96
2024-04-10T13:07:42.953Z,25.90
2024-04-10T13:10:12.157Z,26.76
2024-04-10T13:12:39.939Z,26.61
2024-04-10T13:15:07.869Z,27.14
2024-04-10T13:17:35.456Z,27.04
2024-04-10T13:20:03.565Z,27.13
2024-04-10T13:22:31.287Z,26.67
2024-04-10T13:24:59.058Z,26.86
2024-04-10T13:27:26.229Z,26.75
2024-04-10T13:29:53.912Z,26.16
2024-04-10T13:32:21.465Z,26.12
2024-04-10T13:34:49.958Z,26.18
2024-04-10T13:37:26.159Z,26.48
2024-04-10T13:39:58.759Z,26.47
2024-04-10T13:42:25.907Z,26.83
2024-04-10T13:44:53.961Z,26.98
2024-04-10T13:47:21.196Z,26.98
2024-04-10T13:49:50.053Z,26.45
2024-04-10T13:52:17.495Z,25.87
2024-04-10T13:54:45.827Z,25.51
2024-04-10T13:57:14.080Z,25.13
2024-04-10T13:59:42.880Z,25.03
2024-04-10T14:02:10.924Z,25.04
2024-04-10T14:04:38.731Z,25.15
2024-04-10T14:07:05.837Z,25.73
2024-04-10T14:09:33.205Z,25.17
2024-04-10T14:12:00.943Z,24.89
2024-04-10T14:14:28.028Z,25.40
2024-04-10T14:16:55.661Z,25.99
2024-04-10T14:19:23.328Z,26.30
2024-04-10T14:21:50.269Z,26.63
2024-04-10T14:24:17.569Z,26.32
2024-04-10T14:26:44.719Z,25.30
2024-04-10T14:29:12.238Z,25.27
2024-04-10T14:31:39.498Z,24.93
2024-04-10T14:34:07.289Z,24.62
2024-04-10T14:36:37.481Z,24.85
2024-04-10T14:39:04.998Z,24.52
2024-04-10T14:41:32.060Z,24.25
2024-04-10T14:43:59.482Z,24.14
2024-04-10T14:46:26.779Z,24.30
2024-04-10T14:48:53.864Z,24.57
2024-04-10T14:51:24.081Z,24.46
2024-04-10T14:53:51.070Z,24.64
2024-04-10T14:56:20.062Z,24.38
2024-04-10T14:58:48.404Z,24.28
2024-04-10T15:01:19.156Z,24.65
2024-04-10T15:03:46.795Z,24.96
2024-04-10T15:06:14.666Z,24.97
2024-04-10T15:08:44.829Z,24.67
2024-04-10T15:11:22.285Z,24.60
2024-04-10T15:13:49.441Z,25.16
2024-04-10T15:16:18.639Z,24.96
2024-04-10T15:18:46.420Z,24.53
2024-04-10T15:21:13.786Z,24.45
2024-04-10T15:23:40.959Z,24.38
2024-04-10T15:26:08.059Z,24.40
2024-04-10T15:28:35.466Z,24.06
2024-04-10T15:31:03.673Z,24.38
2024-04-10T15:33:32.289Z,24.67
2024-04-10T15:36:04.225Z,24.66
2024-04-10T15:38:32.071Z,25.21
2024-04-10T15:40:59.705Z,25.48
2024-04-10T15:43:27.885Z,25.26
2024-04-10T15:45:59.652Z,24.90
2024-04-10T15:48:27.226Z,25.54
2024-04-10T15:50:58.511Z,25.34
2024-04-10T15:53:25.904Z,25.47
2024-04-10T15:56:05.324Z,25.85
2024-04-10T15:58:33.092Z,25.88
2024-04-10T16:01:01.573Z,26.27
2024-04-10T16:03:31.809Z,25.94
2024-04-10T16:06:00.228Z,26.23
2024-04-10T16:08:27.946Z,26.35
2024-04-10T16:10:55.252Z,26.65
2024-04-10T16:13:22.243Z,26.84
2024-04-10T16:15:50.991Z,27.31
2024-04-10T16:18:18.252Z,27.45
2024-04-10T16:20:45.482Z,27.81
2024-04-10T16:23:13.035Z,28.22
2024-04-10T16:25:40.151Z,28.64
2024-04-10T16:28:07.733Z,28.90
2024-04-10T16:30:38.462Z,29.13
2024-04-10T16:33:05.640Z,29.60
2024-04-10T16:35:33.231Z,29.91
2024-04-10T16:38:00.318Z,30.74
2024-04-10T16:40:27.365Z,31.30
2024-04-10T16:42:55.220Z,31.62
2024-04-10T16:45:24.855Z,31.84
2024-04-10T16:47:52.552Z,32.21
2024-04-10T16:50:20.094Z,32.95
2024-04-10T16:52:51.620Z,33.43
2024-04-10T16:55:19.181Z,34.12
2024-04-10T16:57:46.228Z,34.35
2024-04-10T17:00:14.369Z,34.46
2024-04-10T17:02:41.877Z,35.06
2024-04-10T17:05:09.325Z,35.45
2024-04-10T17:07:37.855Z,35.86
2024-04-10T17:10:05.296Z,36.35
2024-04-10T17:12:32.819Z,36.50
2024-04-10T17:15:00.788Z,36.92
2024-04-10T17:17:48.184Z,37.32
2024-04-10T17:20:34.967Z,37.45
2024-04-10T17:23:02.205Z,37.96
2024-04-10T17:25:29.248Z,38.18
2024-04-10T17:27:56.701Z,38.36
2024-04-10T17:30:24.100Z,38.76
2024-04-10T17:32:51.646Z,39.10
2024-04-10T17:35:19.432Z,40.13
2024-04-10T17:37:46.559Z,40.30
2024-04-10T17:40:14.205Z,40.70
2024-04-10T17:42:43.622Z,40.87
2024-04-10T17:45:10.500Z,41.31
2024-04-10T17:47:37.788Z,41.68
2024-04-10T17:50:05.792Z,41.79
2024-04-10T17:52:32.727Z,42.02
2024-04-10T17:55:00.443Z,42.09
2024-04-10T17:57:27.848Z,42.72
2024-04-10T17:59:55.170Z,42.22
2024-04-10T18:02:23.673Z,42.17
2024-04-10T18:04:50.874Z,42.37
2024-04-10T18:07:18.623Z,42.39
2024-04-10T18:09:45.755Z,42.34
2024-04-10T18:12:17.789Z,42.16
2024-04-10T18:14:45.011Z,42.41
2024-04-10T18:17:12.238Z,42.11
2024-04-10T18:19:39.950Z,42.20
2024-04-10T18:22:07.868Z,42.64
2024-04-10T18:24:35.932Z,42.91
2024-04-10T18:27:04.275Z,42.74
2024-04-10T18:29:32.476Z,42.88
2024-04-10T18:32:00.736Z,43.23
2024-04-10T18:34:27.895Z,43.22
2024-04-10T18:36:58.153Z,43.39
2024-04-10T18:39:25.411Z,43.51
2024-04-10T18:41:52.412Z,43.13
2024-04-10T18:44:20.048Z,43.18
2024-04-10T18:46:47.274Z,43.23
2024-04-10T18:49:15.765Z,43.48
2024-04-10T18:51:43.211Z,43.32
2024-04-10T18:54:10.435Z,43.59
2024-04-10T18:56:38.136Z,43.65
2024-04-10T18:59:05.591Z,44.20
2024-04-10T19:01:32.938Z,44.19
2024-04-10T19:04:00.098Z,44.40
2024-04-10T19:06:27.553Z,44.32
2024-04-10T19:08:54.743Z,44.32
2024-04-10T19:11:22.792Z,43.93
2024-04-10T19:13:49.823Z,43.94
2024-04-10T19:16:16.972Z,43.79
2024-04-10T19:18:45.360Z,43.41
2024-04-10T19:21:13.301Z,43.07
2024-04-10T19:23:40.624Z,42.97
2024-04-10T19:26:07.958Z,42.93
2024-04-10T19:28:34.994Z,42.70
2024-04-10T19:31:02.939Z,42.60
2024-04-10T19:33:30.800Z,43.15
2024-04-10T19:36:15.913Z,42.95
2024-04-10T19:38:43.450Z,43.27
2024-04-10T19:41:11.671Z,43.32
2024-04-10T19:48:32.207Z,44.45
2024-04-10T19:51:00.470Z,44.47
2024-04-10T19:53:27.872Z,44.63
2024-04-10T19:56:00.328Z,45.12
2024-04-10T19:58:28.968Z,45.68
2024-04-10T20:01:03.650Z,46.33
2024-04-10T20:03:31.684Z,46.49
2024-04-10T20:06:03.441Z,47.27
2024-04-10T20:08:35.851Z,47.46
2024-04-10T20:11:03.340Z,48.27
2024-04-10T20:13:30.425Z,48.54
2024-04-10T20:16:04.531Z,48.72
2024-04-10T20:18:33.834Z,49.50
2024-04-10T20:21:03.021Z,49.68
2024-04-10T20:23:31.416Z,50.29
2024-04-10T20:25:58.567Z,50.58
2024-04-10T20:28:27.003Z,51.00
2024-04-10T20:31:09.887Z,50.95
2024-04-10T20:33:38.227Z,51.28
2024-04-10T20:36:07.836Z,51.66
2024-04-10T20:38:35.519Z,51.41
2024-04-10T20:41:05.556Z,51.44
2024-04-10T20:43:33.232Z,51.14
2024-04-10T20:46:01.300Z,51.16
2024-04-10T20:48:31.133Z,51.17
2024-04-10T20:51:18.773Z,52.33
2024-04-10T20:53:47.286Z,52.03
2024-04-10T20:56:20.482Z,52.58
2024-04-10T20:58:48.228Z,53.02
2024-04-10T21:01:16.999Z,53.31
2024-04-10T21:03:48.096Z,53.78
2024-04-10T21:06:16.690Z,53.54
2024-04-10T21:09:06.129Z,53.97
2024-04-10T21:11:54.279Z,54.23
2024-04-10T21:14:41.066Z,54.72
2024-04-10T21:17:26.637Z,54.41
2024-04-10T21:20:12.257Z,54.31
2024-04-10T21:22:58.176Z,55.31
2024-04-10T21:25:50.852Z,55.28
2024-04-10T21:28:38.358Z,55.14
2024-04-10T21:31:24.664Z,55.32
2024-04-10T21:34:11.554Z,55.99
2024-04-10T21:36:57.169Z,56.00
2024-04-10T21:39:44.777Z,56.55
2024-04-10T21:42:30.373Z,56.77
2024-04-10T21:45:18.138Z,56.86
2024-04-10T21:48:03.716Z,56.62
2024-04-10T21:50:49.808Z,56.66
2024-04-10T21:53:38.144Z,56.77
2024-04-10T21:56:25.048Z,57.07
2024-04-10T21:59:14.842Z,57.71
2024-04-10T22:02:06.495Z,57.53
2024-04-10T22:04:57.317Z,58.05
2024-04-10T22:07:44.635Z,58.16
2024-04-10T22:10:12.262Z,57.96
2024-04-10T22:12:40.269Z,58.50
2024-04-10T22:15:10.763Z,58.91
2024-04-10T22:17:56.101Z,59.98
2024-04-10T22:20:44.080Z,60.73
2024-04-10T22:23:29.808Z,59.69
2024-04-10T22:25:57.118Z,59.48
2024-04-10T22:28:27.135Z,59.33
2024-04-10T22:30:56.255Z,59.94
2024-04-10T22:33:23.378Z,59.50
2024-04-10T22:36:00.056Z,58.84
2024-04-10T22:38:29.823Z,58.80
2024-04-10T22:40:58.784Z,57.99
2024-04-10T22:43:25.538Z,58.15
2024-04-10T22:45:55.473Z,57.89
2024-04-10T22:48:22.496Z,58.07
2024-04-10T22:50:49.479Z,58.52
2024-04-10T22:53:16.887Z,58.04
2024-04-10T22:55:44.361Z,58.91
2024-04-10T22:58:11.683Z,57.92
2024-04-10T23:00:38.650Z,57.08
2024-04-10T23:03:06.266Z,57.07
2024-04-10T23:05:45.643Z,57.94
2024-04-10T23:08:30.499Z,56.99
2024-04-10T23:11:03.576Z,56.80
2024-04-10T23:13:30.966Z,57.04
2024-04-10T23:15:57.808Z,56.11
2024-04-10T23:18:40.786Z,55.97
2024-04-10T23:21:14.547Z,56.38
2024-04-10T23:23:41.730Z,56.72
2024-04-10T23:26:08.550Z,56.45
2024-04-10T23:28:37.638Z,57.85
2024-04-10T23:31:04.685Z,58.30
2024-04-10T23:33:32.590Z,58.91
2024-04-10T23:35:59.660Z,59.14
2024-04-10T23:38:26.787Z,59.33
2024-04-10T23:40:53.806Z,59.65
2024-04-10T23:43:20.638Z,59.33
2024-04-10T23:45:54.657Z,59.66
2024-04-10T23:48:21.588Z,59.50
2024-04-10T23:50:48.462Z,58.54
2024-04-10T23:53:16.077Z,57.92
2024-04-10T23:55:42.853Z,57.12
2024-04-10T23:58:11.335Z,56.50
